Kalamazoo, MI

5:47 PM EDT on August 25, 2016 (GMT -0400)
Lawndale Ave | | Change Station
Active Advisory: Flood Warning

Elev 801 ft 42.28 °N, 85.48 °W | Updated 2 seconds ago

Mostly Cloudy
Mostly Cloudy
80.8 °F
Feels Like 84 °F
N
5.8
Wind Variable Wind from WSW
Gusts 7.4 mph

Today
High -- | Low -- °F
--% Chance of Precip.
Yesterday
High -- | Low -- °F
Precip. -- in
Pressure 30.00 in
Visibility 10.0 miles
Clouds Mostly Cloudy 2500 ft
Heat Index 84 °F
Dew Point 70 °F
Humidity 70%
Rainfall 0.05 in
Snow Depth Not available.
7:00 AM 8:26 PM
Last Quarter, 41% visible
METAR KAZO 252053Z 27014KT 10SM BKN025 27/20 A3002 RMK AO2 SLP159 T02720200 53000
Pressure 30.00 in
Visibility 10.0 miles
Clouds Mostly Cloudy 2500 ft
Heat Index 84 °F
Dew Point 70 °F
Humidity 70%
Rainfall 0.05 in
Snow Depth Not available.
7:00 AM 8:26 PM
Last Quarter, 41% visible
METAR KAZO 252053Z 27014KT 10SM BKN025 27/20 A3002 RMK AO2 SLP159 T02720200 53000
A tropical disturbance pushing toward the Bahamas, is expected to develop into a tropical depression or storm, and will likely target Florida and the Gulf Coast this weekend into next week.

Right now, the disturbance remains a broad area of low pressure pushing through the Dominican Republic and Haiti, headed toward the southeast Bahamas. Rainfall totals over 3 inches (with locally higher amounts) are expected in HispaƱiola, particularly over elevated terrain.

10-Day Weather Forecast

Almanac

Astronomy

Aug. 25, 2016 Rise Set
Actual Time
Civil Twilight
Nautical Twilight
Astronomical Twilight
Moon
Length of Visible Light
Length of Day
Tomorrow will be .
, % of the Moon is Illuminated

Today's Extremes

State Highs State Lows

Community

WunderPhotos

Upload Photos

1,934,947 photos uploaded!

WunderBlog® & News

Nearby

Air Quality

  Air Quality AQ Index Pollutant
Not available.

Snow Depth

Station Depth Elevation

Earthquake Activity

City Distance Mag. Time & Date
Minimum magnitude displayed is 2.5.

Coastal Water Temperatures

Place Temperature

Stations

Nearby Weather Stations

Station Location Temp. Windchill Dew Point Humidity Wind Precip. Elev Updated Type
                   

Watches & Warnings

Flood Warning
Issued: 2:32 PM EDT Aug. 25, 2016 – National Weather Service

The Flood Warning continues for
the Portage River near Vicksburg.
* Until late Friday night.
* At 1:10 PM Thursday the stage was 5.1 feet.
* Flood stage is 5.0 feet.
* Forecast, the river will continue to fall below flood stage by
after midnight tonight.
* Impact, at 5.0 feet... expect overflows into wooded areas and
farmland adjacent to the river
* flood history, this crest compares to a previous crest of 5.0 feet
on Apr 20 2013.


Lat... Lon 4208 8547 4211 8544 4216 8544 4215 8548
      4211 8553 4208 8552


63